sensor_id;sensor_type;location;lat;lon;timestamp;P1;durP1;ratioP1;P2;durP2;ratioP2
75061;SDS011;63641;46.526;24.612;2022-11-18T00:01:04;14.02;;;12.63;;
75061;SDS011;63641;46.526;24.612;2022-11-18T00:03:32;22.20;;;16.02;;
75061;SDS011;63641;46.526;24.612;2022-11-18T00:05:59;16.80;;;13.88;;
75061;SDS011;63641;46.526;24.612;2022-11-18T00:08:25;15.63;;;13.88;;
75061;SDS011;63641;46.526;24.612;2022-11-18T00:10:52;16.52;;;12.82;;
75061;SDS011;63641;46.526;24.612;2022-11-18T00:13:19;15.40;;;12.75;;
75061;SDS011;63641;46.526;24.612;2022-11-18T00:16:06;14.45;;;12.73;;
75061;SDS011;63641;46.526;24.612;2022-11-18T00:18:34;14.68;;;12.38;;
75061;SDS011;63641;46.526;24.612;2022-11-18T00:21:09;15.30;;;12.23;;
75061;SDS011;63641;46.526;24.612;2022-11-18T00:23:37;14.10;;;12.63;;
75061;SDS011;63641;46.526;24.612;2022-11-18T00:26:08;14.68;;;12.45;;
75061;SDS011;63641;46.526;24.612;2022-11-18T00:28:37;15.10;;;11.40;;
75061;SDS011;63641;46.526;24.612;2022-11-18T00:31:05;13.27;;;11.85;;
75061;SDS011;63641;46.526;24.612;2022-11-18T00:33:34;14.70;;;12.70;;
75061;SDS011;63641;46.526;24.612;2022-11-18T00:36:06;15.90;;;13.45;;
75061;SDS011;63641;46.526;24.612;2022-11-18T00:38:34;14.25;;;12.75;;
75061;SDS011;63641;46.526;24.612;2022-11-18T00:41:02;15.98;;;13.77;;
75061;SDS011;63641;46.526;24.612;2022-11-18T00:43:30;18.17;;;13.25;;
75061;SDS011;63641;46.526;24.612;2022-11-18T00:45:58;14.93;;;13.35;;
75061;SDS011;63641;46.526;24.612;2022-11-18T00:48:24;15.52;;;13.90;;
75061;SDS011;63641;46.526;24.612;2022-11-18T00:50:52;15.88;;;13.02;;
75061;SDS011;63641;46.526;24.612;2022-11-18T00:53:20;15.13;;;13.65;;
75061;SDS011;63641;46.526;24.612;2022-11-18T00:55:48;14.40;;;12.73;;
75061;SDS011;63641;46.526;24.612;2022-11-18T00:58:16;14.35;;;12.52;;
75061;SDS011;63641;46.526;24.612;2022-11-18T01:00:45;14.70;;;13.20;;
75061;SDS011;63641;46.526;24.612;2022-11-18T01:03:15;15.30;;;13.35;;
75061;SDS011;63641;46.526;24.612;2022-11-18T01:05:42;14.93;;;12.20;;
75061;SDS011;63641;46.526;24.612;2022-11-18T01:08:10;16.50;;;14.90;;
75061;SDS011;63641;46.526;24.612;2022-11-18T01:10:37;15.82;;;14.30;;
75061;SDS011;63641;46.526;24.612;2022-11-18T01:13:05;16.88;;;15.38;;
75061;SDS011;63641;46.526;24.612;2022-11-18T01:18:21;14.32;;;12.93;;
75061;SDS011;63641;46.526;24.612;2022-11-18T01:20:51;14.75;;;13.35;;
75061;SDS011;63641;46.526;24.612;2022-11-18T01:23:18;15.65;;;14.15;;
75061;SDS011;63641;46.526;24.612;2022-11-18T01:25:46;15.10;;;12.25;;
75061;SDS011;63641;46.526;24.612;2022-11-18T01:28:15;14.38;;;12.90;;
75061;SDS011;63641;46.526;24.612;2022-11-18T01:30:48;14.68;;;13.15;;
75061;SDS011;63641;46.526;24.612;2022-11-18T01:33:15;15.63;;;13.50;;
75061;SDS011;63641;46.526;24.612;2022-11-18T01:35:42;14.75;;;13.18;;
75061;SDS011;63641;46.526;24.612;2022-11-18T01:38:10;14.75;;;13.00;;
75061;SDS011;63641;46.526;24.612;2022-11-18T01:40:38;15.20;;;13.70;;
75061;SDS011;63641;46.526;24.612;2022-11-18T01:43:12;15.55;;;12.77;;
75061;SDS011;63641;46.526;24.612;2022-11-18T01:45:44;13.77;;;12.15;;
75061;SDS011;63641;46.526;24.612;2022-11-18T01:48:13;14.15;;;12.68;;
75061;SDS011;63641;46.526;24.612;2022-11-18T01:50:45;13.75;;;12.05;;
75061;SDS011;63641;46.526;24.612;2022-11-18T01:53:15;13.50;;;12.20;;
75061;SDS011;63641;46.526;24.612;2022-11-18T01:55:46;15.20;;;13.80;;
75061;SDS011;63641;46.526;24.612;2022-11-18T01:58:22;14.43;;;12.93;;
75061;SDS011;63641;46.526;24.612;2022-11-18T02:01:04;13.73;;;12.30;;
75061;SDS011;63641;46.526;24.612;2022-11-18T02:03:33;14.32;;;12.93;;
75061;SDS011;63641;46.526;24.612;2022-11-18T02:06:00;13.05;;;11.68;;
75061;SDS011;63641;46.526;24.612;2022-11-18T02:08:29;13.20;;;11.93;;
75061;SDS011;63641;46.526;24.612;2022-11-18T02:10:57;13.25;;;11.88;;
75061;SDS011;63641;46.526;24.612;2022-11-18T02:13:24;12.43;;;11.07;;
75061;SDS011;63641;46.526;24.612;2022-11-18T02:15:58;12.10;;;10.82;;
75061;SDS011;63641;46.526;24.612;2022-11-18T02:30:06;11.80;;;10.57;;
75061;SDS011;63641;46.526;24.612;2022-11-18T02:35:23;11.57;;;10.25;;
75061;SDS011;63641;46.526;24.612;2022-11-18T02:40:28;11.48;;;10.07;;
75061;SDS011;63641;46.526;24.612;2022-11-18T02:43:00;14.88;;;11.43;;
75061;SDS011;63641;46.526;24.612;2022-11-18T02:45:30;11.10;;;10.07;;
75061;SDS011;63641;46.526;24.612;2022-11-18T02:48:02;10.40;;;9.18;;
75061;SDS011;63641;46.526;24.612;2022-11-18T02:50:33;9.95;;;8.95;;
75061;SDS011;63641;46.526;24.612;2022-11-18T02:53:05;12.48;;;9.27;;
75061;SDS011;63641;46.526;24.612;2022-11-18T02:55:36;10.50;;;9.50;;
75061;SDS011;63641;46.526;24.612;2022-11-18T02:58:05;9.93;;;9.02;;
75061;SDS011;63641;46.526;24.612;2022-11-18T03:00:33;9.35;;;8.40;;
75061;SDS011;63641;46.526;24.612;2022-11-18T03:03:20;9.75;;;8.85;;
75061;SDS011;63641;46.526;24.612;2022-11-18T03:08:58;8.55;;;7.65;;
75061;SDS011;63641;46.526;24.612;2022-11-18T03:14:42;9.43;;;7.25;;
75061;SDS011;63641;46.526;24.612;2022-11-18T03:20:24;9.60;;;8.35;;
75061;SDS011;63641;46.526;24.612;2022-11-18T03:22:56;10.65;;;9.55;;
75061;SDS011;63641;46.526;24.612;2022-11-18T03:30:49;9.95;;;8.95;;
75061;SDS011;63641;46.526;24.612;2022-11-18T03:33:23;10.10;;;9.10;;
75061;SDS011;63641;46.526;24.612;2022-11-18T03:35:59;10.90;;;9.75;;
75061;SDS011;63641;46.526;24.612;2022-11-18T03:38:29;10.85;;;9.75;;
75061;SDS011;63641;46.526;24.612;2022-11-18T03:41:03;13.30;;;9.95;;
75061;SDS011;63641;46.526;24.612;2022-11-18T03:43:35;11.68;;;10.48;;
75061;SDS011;63641;46.526;24.612;2022-11-18T03:48:48;12.27;;;11.10;;
75061;SDS011;63641;46.526;24.612;2022-11-18T03:51:21;12.32;;;11.18;;
75061;SDS011;63641;46.526;24.612;2022-11-18T03:53:52;12.32;;;11.02;;
75061;SDS011;63641;46.526;24.612;2022-11-18T03:56:28;11.90;;;10.70;;
75061;SDS011;63641;46.526;24.612;2022-11-18T04:01:46;15.70;;;14.18;;
75061;SDS011;63641;46.526;24.612;2022-11-18T04:04:17;15.80;;;14.20;;
75061;SDS011;63641;46.526;24.612;2022-11-18T04:06:46;15.85;;;14.25;;
75061;SDS011;63641;46.526;24.612;2022-11-18T04:09:18;17.88;;;16.20;;
75061;SDS011;63641;46.526;24.612;2022-11-18T04:11:50;17.42;;;15.80;;
75061;SDS011;63641;46.526;24.612;2022-11-18T04:14:37;15.30;;;13.90;;
75061;SDS011;63641;46.526;24.612;2022-11-18T04:17:18;15.07;;;12.70;;
75061;SDS011;63641;46.526;24.612;2022-11-18T04:19:46;13.02;;;11.73;;
75061;SDS011;63641;46.526;24.612;2022-11-18T04:22:13;11.95;;;10.75;;
75061;SDS011;63641;46.526;24.612;2022-11-18T04:24:40;10.70;;;9.68;;
75061;SDS011;63641;46.526;24.612;2022-11-18T04:27:07;11.90;;;10.80;;
75061;SDS011;63641;46.526;24.612;2022-11-18T04:29:34;10.75;;;9.63;;
75061;SDS011;63641;46.526;24.612;2022-11-18T04:32:01;10.55;;;9.48;;
75061;SDS011;63641;46.526;24.612;2022-11-18T04:34:28;9.00;;;8.13;;
75061;SDS011;63641;46.526;24.612;2022-11-18T04:36:56;9.65;;;7.30;;
75061;SDS011;63641;46.526;24.612;2022-11-18T04:39:23;12.90;;;9.75;;
75061;SDS011;63641;46.526;24.612;2022-11-18T04:41:50;10.60;;;8.95;;
75061;SDS011;63641;46.526;24.612;2022-11-18T04:44:27;11.70;;;10.60;;
75061;SDS011;63641;46.526;24.612;2022-11-18T04:46:56;8.43;;;7.60;;
75061;SDS011;63641;46.526;24.612;2022-11-18T04:49:24;9.27;;;7.03;;
75061;SDS011;63641;46.526;24.612;2022-11-18T04:51:51;8.45;;;7.55;;
75061;SDS011;63641;46.526;24.612;2022-11-18T04:54:19;10.10;;;9.10;;
75061;SDS011;63641;46.526;24.612;2022-11-18T04:56:46;8.65;;;7.65;;
75061;SDS011;63641;46.526;24.612;2022-11-18T04:59:16;8.38;;;7.40;;
75061;SDS011;63641;46.526;24.612;2022-11-18T05:01:45;13.07;;;10.23;;
75061;SDS011;63641;46.526;24.612;2022-11-18T05:04:13;10.85;;;8.85;;
75061;SDS011;63641;46.526;24.612;2022-11-18T05:06:41;10.90;;;9.77;;
75061;SDS011;63641;46.526;24.612;2022-11-18T05:09:08;15.57;;;10.52;;
75061;SDS011;63641;46.526;24.612;2022-11-18T05:11:35;17.65;;;11.48;;
75061;SDS011;63641;46.526;24.612;2022-11-18T05:14:21;13.65;;;11.95;;
75061;SDS011;63641;46.526;24.612;2022-11-18T05:16:50;12.98;;;9.68;;
75061;SDS011;63641;46.526;24.612;2022-11-18T05:19:16;10.82;;;9.75;;
75061;SDS011;63641;46.526;24.612;2022-11-18T05:21:43;10.10;;;9.10;;
75061;SDS011;63641;46.526;24.612;2022-11-18T05:24:10;10.10;;;9.23;;
75061;SDS011;63641;46.526;24.612;2022-11-18T05:26:37;11.45;;;10.48;;
75061;SDS011;63641;46.526;24.612;2022-11-18T05:29:04;10.00;;;9.10;;
75061;SDS011;63641;46.526;24.612;2022-11-18T05:31:31;10.60;;;9.50;;
75061;SDS011;63641;46.526;24.612;2022-11-18T05:33:58;9.55;;;8.55;;
75061;SDS011;63641;46.526;24.612;2022-11-18T05:36:25;7.95;;;6.90;;
75061;SDS011;63641;46.526;24.612;2022-11-18T05:38:52;9.30;;;7.47;;
75061;SDS011;63641;46.526;24.612;2022-11-18T05:41:18;7.32;;;6.63;;
75061;SDS011;63641;46.526;24.612;2022-11-18T05:44:04;8.52;;;6.88;;
75061;SDS011;63641;46.526;24.612;2022-11-18T05:46:31;10.18;;;7.15;;
75061;SDS011;63641;46.526;24.612;2022-11-18T05:48:58;7.85;;;7.00;;
75061;SDS011;63641;46.526;24.612;2022-11-18T05:51:25;8.32;;;6.78;;
75061;SDS011;63641;46.526;24.612;2022-11-18T05:53:52;9.10;;;8.05;;
75061;SDS011;63641;46.526;24.612;2022-11-18T05:56:21;12.20;;;10.02;;
75061;SDS011;63641;46.526;24.612;2022-11-18T05:58:53;13.77;;;12.68;;
75061;SDS011;63641;46.526;24.612;2022-11-18T06:04:07;26.95;;;22.85;;
75061;SDS011;63641;46.526;24.612;2022-11-18T06:06:38;28.05;;;25.33;;
75061;SDS011;63641;46.526;24.612;2022-11-18T06:09:05;30.83;;;27.92;;
75061;SDS011;63641;46.526;24.612;2022-11-18T06:11:44;26.70;;;24.27;;
75061;SDS011;63641;46.526;24.612;2022-11-18T06:14:16;28.77;;;26.00;;
75061;SDS011;63641;46.526;24.612;2022-11-18T06:16:54;27.45;;;24.75;;
75061;SDS011;63641;46.526;24.612;2022-11-18T06:19:23;25.60;;;23.00;;
75061;SDS011;63641;46.526;24.612;2022-11-18T06:21:51;25.40;;;22.90;;
75061;SDS011;63641;46.526;24.612;2022-11-18T06:24:18;33.17;;;29.60;;
75061;SDS011;63641;46.526;24.612;2022-11-18T06:26:46;34.50;;;29.95;;
75061;SDS011;63641;46.526;24.612;2022-11-18T06:29:14;32.67;;;28.67;;
75061;SDS011;63641;46.526;24.612;2022-11-18T06:31:51;34.30;;;29.02;;
75061;SDS011;63641;46.526;24.612;2022-11-18T06:34:18;33.53;;;29.95;;
75061;SDS011;63641;46.526;24.612;2022-11-18T06:36:44;32.60;;;29.10;;
75061;SDS011;63641;46.526;24.612;2022-11-18T06:39:11;30.35;;;27.05;;
75061;SDS011;63641;46.526;24.612;2022-11-18T06:41:38;32.40;;;27.88;;
75061;SDS011;63641;46.526;24.612;2022-11-18T06:44:05;31.58;;;27.02;;
75061;SDS011;63641;46.526;24.612;2022-11-18T06:46:31;28.88;;;25.30;;
75061;SDS011;63641;46.526;24.612;2022-11-18T06:49:17;27.42;;;24.60;;
75061;SDS011;63641;46.526;24.612;2022-11-18T06:51:44;30.85;;;27.95;;
75061;SDS011;63641;46.526;24.612;2022-11-18T06:54:11;26.77;;;24.45;;
75061;SDS011;63641;46.526;24.612;2022-11-18T06:56:38;26.80;;;24.15;;
75061;SDS011;63641;46.526;24.612;2022-11-18T06:59:04;26.08;;;23.48;;
75061;SDS011;63641;46.526;24.612;2022-11-18T07:01:33;26.75;;;24.45;;
75061;SDS011;63641;46.526;24.612;2022-11-18T07:04:02;22.33;;;20.35;;
75061;SDS011;63641;46.526;24.612;2022-11-18T07:06:30;21.48;;;19.50;;
75061;SDS011;63641;46.526;24.612;2022-11-18T07:09:00;21.42;;;19.45;;
75061;SDS011;63641;46.526;24.612;2022-11-18T07:11:27;22.65;;;20.35;;
75061;SDS011;63641;46.526;24.612;2022-11-18T07:13:55;25.08;;;22.52;;
75061;SDS011;63641;46.526;24.612;2022-11-18T07:16:22;25.48;;;22.88;;
75061;SDS011;63641;46.526;24.612;2022-11-18T07:18:53;26.02;;;23.33;;
75061;SDS011;63641;46.526;24.612;2022-11-18T07:21:24;25.48;;;22.48;;
75061;SDS011;63641;46.526;24.612;2022-11-18T07:23:53;29.35;;;26.08;;
75061;SDS011;63641;46.526;24.612;2022-11-18T07:26:21;30.65;;;26.08;;
75061;SDS011;63641;46.526;24.612;2022-11-18T07:28:48;31.20;;;27.90;;
75061;SDS011;63641;46.526;24.612;2022-11-18T07:31:18;33.92;;;28.75;;
75061;SDS011;63641;46.526;24.612;2022-11-18T07:33:46;30.80;;;26.63;;
75061;SDS011;63641;46.526;24.612;2022-11-18T07:36:14;34.25;;;28.48;;
75061;SDS011;63641;46.526;24.612;2022-11-18T07:38:43;34.80;;;28.58;;
75061;SDS011;63641;46.526;24.612;2022-11-18T07:41:11;33.85;;;27.80;;
75061;SDS011;63641;46.526;24.612;2022-11-18T07:43:40;30.35;;;26.92;;
75061;SDS011;63641;46.526;24.612;2022-11-18T07:46:12;28.98;;;26.08;;
75061;SDS011;63641;46.526;24.612;2022-11-18T07:48:47;29.20;;;23.77;;
75061;SDS011;63641;46.526;24.612;2022-11-18T07:51:16;19.20;;;17.40;;
75061;SDS011;63641;46.526;24.612;2022-11-18T07:53:43;16.40;;;15.10;;
75061;SDS011;63641;46.526;24.612;2022-11-18T07:56:11;10.77;;;9.77;;
75061;SDS011;63641;46.526;24.612;2022-11-18T07:58:39;9.98;;;8.98;;
75061;SDS011;63641;46.526;24.612;2022-11-18T08:03:38;8.20;;;7.53;;
75061;SDS011;63641;46.526;24.612;2022-11-18T08:06:05;7.80;;;6.95;;
75061;SDS011;63641;46.526;24.612;2022-11-18T08:08:34;8.65;;;7.20;;
75061;SDS011;63641;46.526;24.612;2022-11-18T08:11:02;7.80;;;6.97;;
75061;SDS011;63641;46.526;24.612;2022-11-18T08:13:35;8.90;;;7.45;;
75061;SDS011;63641;46.526;24.612;2022-11-18T08:16:03;10.48;;;8.38;;
75061;SDS011;63641;46.526;24.612;2022-11-18T08:18:30;8.52;;;6.65;;
75061;SDS011;63641;46.526;24.612;2022-11-18T08:21:01;9.30;;;7.63;;
75061;SDS011;63641;46.526;24.612;2022-11-18T08:23:29;7.68;;;6.85;;
75061;SDS011;63641;46.526;24.612;2022-11-18T08:28:35;7.30;;;6.20;;
75061;SDS011;63641;46.526;24.612;2022-11-18T08:31:09;5.63;;;5.07;;
75061;SDS011;63641;46.526;24.612;2022-11-18T08:33:37;6.50;;;5.50;;
75061;SDS011;63641;46.526;24.612;2022-11-18T08:36:08;6.53;;;5.20;;
75061;SDS011;63641;46.526;24.612;2022-11-18T08:38:37;6.10;;;5.30;;
75061;SDS011;63641;46.526;24.612;2022-11-18T08:41:04;5.80;;;5.15;;
75061;SDS011;63641;46.526;24.612;2022-11-18T08:43:35;6.53;;;5.03;;
75061;SDS011;63641;46.526;24.612;2022-11-18T08:46:02;5.30;;;4.80;;
75061;SDS011;63641;46.526;24.612;2022-11-18T08:48:29;5.85;;;4.68;;
75061;SDS011;63641;46.526;24.612;2022-11-18T08:50:56;5.15;;;4.22;;
75061;SDS011;63641;46.526;24.612;2022-11-18T08:53:24;5.40;;;4.88;;
75061;SDS011;63641;46.526;24.612;2022-11-18T08:55:57;6.90;;;5.38;;
75061;SDS011;63641;46.526;24.612;2022-11-18T08:58:25;6.85;;;5.00;;
75061;SDS011;63641;46.526;24.612;2022-11-18T09:00:52;6.20;;;5.30;;
75061;SDS011;63641;46.526;24.612;2022-11-18T09:03:19;6.32;;;5.03;;
75061;SDS011;63641;46.526;24.612;2022-11-18T09:05:46;5.75;;;4.78;;
75061;SDS011;63641;46.526;24.612;2022-11-18T09:08:13;5.95;;;5.10;;
75061;SDS011;63641;46.526;24.612;2022-11-18T09:10:40;6.32;;;5.72;;
75061;SDS011;63641;46.526;24.612;2022-11-18T09:13:07;5.78;;;5.18;;
75061;SDS011;63641;46.526;24.612;2022-11-18T09:15:56;7.25;;;5.40;;
75061;SDS011;63641;46.526;24.612;2022-11-18T09:18:24;5.72;;;4.93;;
75061;SDS011;63641;46.526;24.612;2022-11-18T09:20:57;6.90;;;5.00;;
75061;SDS011;63641;46.526;24.612;2022-11-18T09:23:25;6.88;;;5.22;;
75061;SDS011;63641;46.526;24.612;2022-11-18T09:25:59;5.60;;;4.93;;
75061;SDS011;63641;46.526;24.612;2022-11-18T09:28:28;6.63;;;4.95;;
75061;SDS011;63641;46.526;24.612;2022-11-18T09:30:55;7.03;;;4.30;;
75061;SDS011;63641;46.526;24.612;2022-11-18T09:33:22;7.32;;;5.13;;
75061;SDS011;63641;46.526;24.612;2022-11-18T09:35:49;6.63;;;4.72;;
75061;SDS011;63641;46.526;24.612;2022-11-18T09:38:16;5.38;;;4.50;;
75061;SDS011;63641;46.526;24.612;2022-11-18T09:40:45;5.05;;;4.55;;
75061;SDS011;63641;46.526;24.612;2022-11-18T09:43:27;5.50;;;4.70;;
75061;SDS011;63641;46.526;24.612;2022-11-18T09:46:06;6.20;;;4.90;;
75061;SDS011;63641;46.526;24.612;2022-11-18T09:48:48;5.10;;;4.60;;
75061;SDS011;63641;46.526;24.612;2022-11-18T09:51:36;6.63;;;5.70;;
75061;SDS011;63641;46.526;24.612;2022-11-18T09:54:09;11.77;;;5.22;;
75061;SDS011;63641;46.526;24.612;2022-11-18T09:56:39;5.35;;;4.82;;
75061;SDS011;63641;46.526;24.612;2022-11-18T09:59:09;5.07;;;4.57;;
75061;SDS011;63641;46.526;24.612;2022-11-18T10:01:38;5.18;;;4.68;;
75061;SDS011;63641;46.526;24.612;2022-11-18T10:04:04;6.30;;;4.50;;
75061;SDS011;63641;46.526;24.612;2022-11-18T10:06:32;5.05;;;4.40;;
75061;SDS011;63641;46.526;24.612;2022-11-18T10:23:13;5.75;;;4.80;;
75061;SDS011;63641;46.526;24.612;2022-11-18T10:25:43;7.50;;;5.07;;
75061;SDS011;63641;46.526;24.612;2022-11-18T10:28:15;6.05;;;5.10;;
75061;SDS011;63641;46.526;24.612;2022-11-18T10:31:10;5.20;;;4.67;;
75061;SDS011;63641;46.526;24.612;2022-11-18T10:33:37;5.57;;;4.60;;
75061;SDS011;63641;46.526;24.612;2022-11-18T10:38:38;5.95;;;5.00;;
75061;SDS011;63641;46.526;24.612;2022-11-18T10:41:06;6.63;;;4.95;;
75061;SDS011;63641;46.526;24.612;2022-11-18T10:43:47;6.70;;;4.90;;
75061;SDS011;63641;46.526;24.612;2022-11-18T10:46:28;9.02;;;4.90;;
75061;SDS011;63641;46.526;24.612;2022-11-18T10:51:41;6.20;;;4.82;;
75061;SDS011;63641;46.526;24.612;2022-11-18T10:54:29;8.45;;;4.97;;
75061;SDS011;63641;46.526;24.612;2022-11-18T10:59:56;7.80;;;5.65;;
75061;SDS011;63641;46.526;24.612;2022-11-18T11:05:17;6.50;;;4.97;;
75061;SDS011;63641;46.526;24.612;2022-11-18T11:08:17;10.68;;;5.45;;
75061;SDS011;63641;46.526;24.612;2022-11-18T11:11:02;5.25;;;4.75;;
75061;SDS011;63641;46.526;24.612;2022-11-18T11:13:29;4.75;;;4.25;;
75061;SDS011;63641;46.526;24.612;2022-11-18T11:15:59;6.18;;;4.53;;
75061;SDS011;63641;46.526;24.612;2022-11-18T11:18:29;5.50;;;5.00;;
75061;SDS011;63641;46.526;24.612;2022-11-18T11:21:15;6.55;;;5.13;;
75061;SDS011;63641;46.526;24.612;2022-11-18T11:23:48;5.50;;;4.78;;
75061;SDS011;63641;46.526;24.612;2022-11-18T11:37:59;5.95;;;4.88;;
75061;SDS011;63641;46.526;24.612;2022-11-18T11:54:06;6.88;;;4.88;;
75061;SDS011;63641;46.526;24.612;2022-11-18T11:59:43;8.68;;;4.90;;
75061;SDS011;63641;46.526;24.612;2022-11-18T12:04:56;9.50;;;4.97;;
75061;SDS011;63641;46.526;24.612;2022-11-18T12:07:32;5.75;;;4.72;;
75061;SDS011;63641;46.526;24.612;2022-11-18T12:15:45;9.40;;;4.55;;
75061;SDS011;63641;46.526;24.612;2022-11-18T12:20:48;5.07;;;4.30;;
75061;SDS011;63641;46.526;24.612;2022-11-18T12:23:21;5.35;;;4.72;;
75061;SDS011;63641;46.526;24.612;2022-11-18T12:25:51;5.88;;;4.45;;
75061;SDS011;63641;46.526;24.612;2022-11-18T12:28:27;5.57;;;4.05;;
75061;SDS011;63641;46.526;24.612;2022-11-18T12:34:00;5.38;;;4.10;;
75061;SDS011;63641;46.526;24.612;2022-11-18T12:36:36;4.93;;;4.28;;
75061;SDS011;63641;46.526;24.612;2022-11-18T12:41:59;5.95;;;5.20;;
75061;SDS011;63641;46.526;24.612;2022-11-18T12:44:46;6.53;;;4.72;;
75061;SDS011;63641;46.526;24.612;2022-11-18T12:47:15;7.20;;;4.75;;
75061;SDS011;63641;46.526;24.612;2022-11-18T12:50:10;7.35;;;4.88;;
75061;SDS011;63641;46.526;24.612;2022-11-18T12:55:14;5.78;;;4.50;;
75061;SDS011;63641;46.526;24.612;2022-11-18T12:57:52;5.70;;;5.00;;
75061;SDS011;63641;46.526;24.612;2022-11-18T13:02:52;5.63;;;5.13;;
75061;SDS011;63641;46.526;24.612;2022-11-18T13:05:22;7.13;;;5.53;;
75061;SDS011;63641;46.526;24.612;2022-11-18T13:07:57;7.82;;;5.40;;
75061;SDS011;63641;46.526;24.612;2022-11-18T13:11:14;26.00;;;6.97;;
75061;SDS011;63641;46.526;24.612;2022-11-18T13:13:54;82.05;;;10.57;;
75061;SDS011;63641;46.526;24.612;2022-11-18T13:16:40;40.30;;;7.32;;
75061;SDS011;63641;46.526;24.612;2022-11-18T13:19:27;377.60;;;29.13;;
75061;SDS011;63641;46.526;24.612;2022-11-18T13:21:55;52.80;;;9.43;;
75061;SDS011;63641;46.526;24.612;2022-11-18T13:24:48;47.05;;;8.32;;
75061;SDS011;63641;46.526;24.612;2022-11-18T13:28:03;10.23;;;8.05;;
75061;SDS011;63641;46.526;24.612;2022-11-18T13:30:26;11.48;;;7.18;;
75061;SDS011;63641;46.526;24.612;2022-11-18T13:32:54;23.77;;;7.55;;
75061;SDS011;63641;46.526;24.612;2022-11-18T13:35:24;12.18;;;7.80;;
75061;SDS011;63641;46.526;24.612;2022-11-18T13:37:56;11.23;;;7.65;;
75061;SDS011;63641;46.526;24.612;2022-11-18T13:40:29;223.35;;;20.30;;
75061;SDS011;63641;46.526;24.612;2022-11-18T13:43:03;31.17;;;9.77;;
75061;SDS011;63641;46.526;24.612;2022-11-18T13:45:30;15.02;;;7.95;;
75061;SDS011;63641;46.526;24.612;2022-11-18T13:48:08;53.63;;;10.18;;
75061;SDS011;63641;46.526;24.612;2022-11-18T13:50:42;10.40;;;7.82;;
75061;SDS011;63641;46.526;24.612;2022-11-18T13:53:35;7.57;;;6.78;;
75061;SDS011;63641;46.526;24.612;2022-11-18T13:56:04;9.48;;;7.65;;
75061;SDS011;63641;46.526;24.612;2022-11-18T13:58:39;22.23;;;8.80;;
75061;SDS011;63641;46.526;24.612;2022-11-18T14:01:32;11.25;;;9.10;;
75061;SDS011;63641;46.526;24.612;2022-11-18T14:04:03;16.02;;;10.77;;
75061;SDS011;63641;46.526;24.612;2022-11-18T14:06:34;15.37;;;13.63;;
75061;SDS011;63641;46.526;24.612;2022-11-18T14:14:34;18.20;;;16.25;;
75061;SDS011;63641;46.526;24.612;2022-11-18T14:17:03;14.50;;;13.13;;
75061;SDS011;63641;46.526;24.612;2022-11-18T14:19:43;15.50;;;13.90;;
75061;SDS011;63641;46.526;24.612;2022-11-18T14:22:20;14.05;;;12.57;;
75061;SDS011;63641;46.526;24.612;2022-11-18T14:24:55;23.42;;;13.07;;
75061;SDS011;63641;46.526;24.612;2022-11-18T14:35:46;16.77;;;15.18;;
75061;SDS011;63641;46.526;24.612;2022-11-18T14:41:10;18.95;;;17.27;;
75061;SDS011;63641;46.526;24.612;2022-11-18T14:43:39;17.58;;;16.08;;
75061;SDS011;63641;46.526;24.612;2022-11-18T14:46:10;16.02;;;14.52;;
75061;SDS011;63641;46.526;24.612;2022-11-18T14:48:39;20.70;;;15.50;;
75061;SDS011;63641;46.526;24.612;2022-11-18T14:51:10;14.55;;;13.27;;
75061;SDS011;63641;46.526;24.612;2022-11-18T14:53:38;14.20;;;12.90;;
75061;SDS011;63641;46.526;24.612;2022-11-18T14:56:07;256.33;;;26.88;;
75061;SDS011;63641;46.526;24.612;2022-11-18T15:01:08;105.75;;;16.70;;
75061;SDS011;63641;46.526;24.612;2022-11-18T15:03:37;16.75;;;15.15;;
75061;SDS011;63641;46.526;24.612;2022-11-18T15:06:14;15.98;;;14.48;;
75061;SDS011;63641;46.526;24.612;2022-11-18T15:08:43;16.38;;;14.85;;
75061;SDS011;63641;46.526;24.612;2022-11-18T15:11:11;470.40;;;46.13;;
75061;SDS011;63641;46.526;24.612;2022-11-18T15:13:38;25.70;;;16.23;;
75061;SDS011;63641;46.526;24.612;2022-11-18T15:16:21;21.70;;;16.30;;
75061;SDS011;63641;46.526;24.612;2022-11-18T15:18:51;15.30;;;14.10;;
75061;SDS011;63641;46.526;24.612;2022-11-18T15:21:21;15.75;;;14.13;;
75061;SDS011;63641;46.526;24.612;2022-11-18T15:23:48;13.63;;;12.70;;
75061;SDS011;63641;46.526;24.612;2022-11-18T15:28:55;15.75;;;14.55;;
75061;SDS011;63641;46.526;24.612;2022-11-18T15:31:23;13.85;;;12.85;;
75061;SDS011;63641;46.526;24.612;2022-11-18T15:33:50;14.25;;;13.05;;
75061;SDS011;63641;46.526;24.612;2022-11-18T15:36:20;15.80;;;14.40;;
75061;SDS011;63641;46.526;24.612;2022-11-18T15:38:48;14.32;;;13.30;;
75061;SDS011;63641;46.526;24.612;2022-11-18T15:41:20;15.00;;;13.85;;
75061;SDS011;63641;46.526;24.612;2022-11-18T15:43:49;15.73;;;14.52;;
75061;SDS011;63641;46.526;24.612;2022-11-18T15:46:16;16.48;;;15.07;;
75061;SDS011;63641;46.526;24.612;2022-11-18T15:48:44;15.55;;;14.40;;
75061;SDS011;63641;46.526;24.612;2022-11-18T15:51:11;15.95;;;14.77;;
75061;SDS011;63641;46.526;24.612;2022-11-18T15:53:38;14.85;;;13.65;;
75061;SDS011;63641;46.526;24.612;2022-11-18T15:59:07;14.00;;;13.00;;
75061;SDS011;63641;46.526;24.612;2022-11-18T16:01:35;15.82;;;14.73;;
75061;SDS011;63641;46.526;24.612;2022-11-18T16:04:10;15.52;;;14.38;;
75061;SDS011;63641;46.526;24.612;2022-11-18T16:06:39;14.48;;;13.43;;
75061;SDS011;63641;46.526;24.612;2022-11-18T16:09:08;20.15;;;18.25;;
75061;SDS011;63641;46.526;24.612;2022-11-18T16:11:36;26.55;;;23.58;;
75061;SDS011;63641;46.526;24.612;2022-11-18T16:14:22;28.77;;;25.67;;
75061;SDS011;63641;46.526;24.612;2022-11-18T16:16:50;22.05;;;20.15;;
75061;SDS011;63641;46.526;24.612;2022-11-18T16:19:20;25.70;;;23.33;;
75061;SDS011;63641;46.526;24.612;2022-11-18T16:21:51;39.65;;;35.47;;
75061;SDS011;63641;46.526;24.612;2022-11-18T16:24:20;37.60;;;33.80;;
75061;SDS011;63641;46.526;24.612;2022-11-18T16:26:49;33.47;;;30.20;;
75061;SDS011;63641;46.526;24.612;2022-11-18T16:29:16;28.83;;;26.13;;
75061;SDS011;63641;46.526;24.612;2022-11-18T16:31:44;33.13;;;29.83;;
75061;SDS011;63641;46.526;24.612;2022-11-18T16:34:20;33.92;;;30.60;;
75061;SDS011;63641;46.526;24.612;2022-11-18T16:36:49;29.23;;;26.30;;
75061;SDS011;63641;46.526;24.612;2022-11-18T16:39:18;27.13;;;24.42;;
75061;SDS011;63641;46.526;24.612;2022-11-18T16:41:51;28.97;;;25.77;;
75061;SDS011;63641;46.526;24.612;2022-11-18T16:44:19;28.48;;;25.70;;
75061;SDS011;63641;46.526;24.612;2022-11-18T16:46:47;28.75;;;25.92;;
75061;SDS011;63641;46.526;24.612;2022-11-18T16:49:16;57.25;;;27.33;;
75061;SDS011;63641;46.526;24.612;2022-11-18T16:51:45;40.10;;;35.83;;
75061;SDS011;63641;46.526;24.612;2022-11-18T16:54:14;40.28;;;34.00;;
75061;SDS011;63641;46.526;24.612;2022-11-18T16:56:45;37.72;;;33.67;;
75061;SDS011;63641;46.526;24.612;2022-11-18T16:59:17;40.58;;;36.00;;
75061;SDS011;63641;46.526;24.612;2022-11-18T17:01:48;43.08;;;37.35;;
75061;SDS011;63641;46.526;24.612;2022-11-18T17:04:16;58.47;;;45.78;;
75061;SDS011;63641;46.526;24.612;2022-11-18T17:06:44;62.97;;;52.97;;
75061;SDS011;63641;46.526;24.612;2022-11-18T17:09:12;54.13;;;44.97;;